КЛИМАТИЧНИ ДАННИ

ДНЕС
Time Temp. Dewp. Hum. Bar.
00:03 20 13.2 65 1023.3
00:13 19.9 13.4 66 1023.3
00:23 19.8 13.3 66 1023.3
00:33 19.8 13.3 66 1023.3
00:44 19.7 13.4 67 1023.2
00:53 19.6 13.3 67 1023.3
01:03 19.4 13.1 67 1023.2
01:13 19.4 13.3 68 1023.1
01:24 19.4 13.3 68 1023
01:34 19.4 13.3 68 1022.7
01:43 19.3 13.3 68 1022.8
01:54 19.2 13.4 69 1022.7
02:04 19.1 13.3 69 1022.6
02:14 19 13.4 70 1022.6
02:24 19 13.4 70 1022.4
02:34 19 13.4 70 1022.3
02:44 19.1 13.5 70 1022
02:54 19 13.4 70 1022
03:05 18.8 13.4 71 1021.9
03:15 18.8 13.4 71 1021.9
03:24 18.7 13.3 71 1021.9
03:34 18.6 13.2 71 1021.7
03:45 18.5 13.1 71 1021.7
03:55 18.5 13.4 72 1021.6
04:05 18.4 13.3 72 1021.7
04:15 18.3 13.2 72 1021.7
04:25 18.3 13.2 72 1021.7
04:35 18.1 13.2 73 1021.6
04:45 18.2 13.3 73 1021.6
04:56 18.2 13.3 73 1021.7
05:05 18.1 13.2 73 1021.8
05:15 18.1 13.2 73 1021.8
05:26 18.1 13.2 73 1021.8
05:36 18 13.1 73 1021.8
05:46 18.1 13.2 73 1021.8
05:55 18.1 13.2 73 1021.8
06:06 18.2 13.3 73 1021.8
06:16 18.2 13.3 73 1021.8
06:26 18.3 13.4 73 1021.8
06:36 18.4 13.5 73 1021.8
06:46 18.5 13.6 73 1021.8
06:56 18.6 13.7 73 1021.8
07:06 18.7 13.8 73 1021.8
07:17 18.9 13.7 72 1021.8
07:27 19.1 13.7 71 1021.8
07:36 19.3 13.7 70 1021.8
07:47 19.6 13.5 68 1021.9
07:53 19.6 13.5 68 1021.9
08:02 19.8 13.3 66 1021.8
08:12 19.9 13.4 66 1021.8
08:22 20 13.7 67 1021.8
08:33 20.1 14.2 69 1021.7
08:43 20.1 14.2 69 1021.8
08:52 20.1 14.2 69 1021.8
09:03 20.2 14.1 68 1021.8
09:13 20.4 13.8 66 1021.7
09:23 20.6 13.8 65 1021.6
09:33 20.6 13.6 64 1021.6
09:44 20.7 13.4 63 1021.4
09:54 20.9 13.4 62 1021.4
10:04 21.3 13.7 62 1021.4
10:14 21.7 13.9 61 1021.4
10:25 21.9 13.8 60 1021.6
10:33 22 13.4 58 1021.4
10:43 22 13.9 60 1021.3
10:54 22.2 14.1 60 1021.3
11:03 22.4 14.3 60 1021.3
11:13 22.3 14.9 63 1021.4
11:24 22.5 15.4 64 1021.3
11:34 22.6 15.2 63 1021.3
11:44 22.6 15.2 63 1021.2
11:54 22.9 15.5 63 1021.2
12:04 22.9 14.7 60 1021.2
12:15 23 15.1 61 1021.1
12:28 23.1 14.7 59 1021.1
12:35 23.2 14.8 59 1021.1
12:45 23.2 14.2 57 1021.1
12:55 23.4 13.9 55 1021
13:05 23.4 13.3 53 1020.9
13:16 23.4 13.9 55 1020.9
13:26 23.5 13.4 53 1020.9
13:35 23.4 13 52 1020.7
13:51 23.5 13.1 52 1020.6
14:01 23.5 13.9 55 1020.5
14:06 23.6 14.3 56 1020.5
14:16 23.5 13.9 55 1020.5
14:26 23.6 14.3 56 1020.5
14:37 23.7 14.1 55 1020.5
14:47 23.7 14.4 56 1020.4
14:56 23.7 14.4 56 1020.4
15:07 23.7 14.4 56 1020.5
15:19 23.7 14.7 57 1020.5
15:29 23.6 14.6 57 1020.4
15:39 23.6 14.9 58 1020.3
15:49 23.6 14.6 57 1020
16:00 23.5 14.5 57 1020
16:10 23.5 14.5 57 1019.9
16:20 23.4 14.7 58 1019.8
16:29 23.4 14.7 58 1019.8
16:40 23.5 14.8 58 1019.7
16:50 23.4 14.4 57 1019.6
17:00 23.3 14.6 58 1019.5
17:11 23.3 14.6 58 1019.3
17:20 23.4 14.7 58 1019.2
17:30 23.4 14.7 58 1019.2
17:36 23.4 14.7 58 1019.2
17:52 23.5 14.5 57 1019.2
18:02 23.4 14.4 57 1019.1
18:12 23.3 14.3 57 1019.2
18:21 23.3 14.3 57 1019.2
18:32 23.2 14.2 57 1019.2
18:42 23 14 57 1019.2
18:52 22.8 14.1 58 1019.1
19:02 22.7 14 58 1019.2
19:13 22.6 13.9 58 1019.3
19:22 22.4 13.7 58 1019.3
19:37 22.1 13.5 58 1019.3
19:48 22 13.1 57 1019.2
19:58 21.9 13.3 58 1019.2
20:08 21.9 13.3 58 1019.2

ДНЕВНИ СТАТИСТИКИ

2020-07-13
ТЕМПЕРАТУРА
СРЕДНО
21.1
ВИСОКО
23.7
14:37
МИНИМУМ
18.0
05:36
АТМОСФЕРНО НАЛЯГАНЕ
СРЕДНО
1021.2
ВИСОКО
1023.3
00:03
МИНИМУМ
1019.1
18:02
ТОЧКА НА ОРОСЯВАНЕ
СРЕДНО
13.8
ВИСОКО
15.5
11:54
МИНИМУМ
13.0
13:35
ОТНОСИТЕЛНА ВЛАЖНОСТ
СРЕДНО
64
ВИСОКО
73
04:35
МИНИМУМ
52
13:35
ТЕМПЕРАТУРА (°C)
МИНИМУМ
18.0
ВИСОКО
23.7
СРЕДНО
21.1
АТМОСФЕРНО НАЛЯГАНЕ (hpa)
МИНИМУМ
1019.1
ВИСОКО
1023.3
СРЕДНО
1021.2
DEVICE